• Join FlightAware (Why Join?)
  • Login
  • US Flag 
08:56AM EDT


 

Airport Tracker/Info


-or-


 

Live Flight TrackerFlight Track Log ✈ N649WM ✈ 02-Jul-2013 ✈ KLBB - KRBD

Flight Track Log - Related Links

Times and Time Zones

All times are in EDT time to prevent confusion due to time zone crossing. See the N649WM flight status page for this flight to view local times or setup timezone preferences in your user account.

Time Position Orientation Groundspeed Altitude Reporting Facility
EDT Latitude Longitude Course Direction KTS MPH feet Rate Location/Type
07:01PM 33.0753 -98.6728 102° East 183 211 11,500  Level Fort Worth Center
07:02PM 33.0656 -98.6181 102° East 183 211 11,500  Level Fort Worth Center
07:03PM 33.0494 -98.5558 107° East 183 211 11,500  Level Fort Worth Center
07:04PM 33.0353 -98.4989 107° East 183 211 11,500  Level Fort Worth Center
07:05PM 33.0253 -98.4442 102° East 183 211 11,500  Level Fort Worth Center
07:06PM 33.0111 -98.3819 105° East 183 211 11,500  Level Fort Worth Center
07:07PM 33.0011 -98.3275 102° East 183 211 11,500  Level Fort Worth Center
07:08PM 32.9869 -98.2678 106° East 183 211 11,500  Level Fort Worth Center
07:09PM 32.9769 -98.2108 102° East 183 211 11,500  Level Fort Worth Center
07:10PM 32.9628 -98.1489 105° East 183 211 11,500  Level Fort Worth Center
07:11PM 32.9650 -98.1017 87° East 171 197 11,500  Level Fort Worth Center
07:12PM 33.0111 -98.0847 17° North 135 155 11,500  Level Fort Worth Center
07:13PM 33.0486 -98.0653 23° Northeast 148 170 11,500  Level Fort Worth Center
07:14PM 33.0697 -98.0233 59° Northeast 128 147 11,500  Level Fort Worth Center
07:15PM 33.0492 -97.9711 115° Southeast 145 167 11,500  Level Fort Worth Center
07:16PM 33.0286 -97.9089 111° Southeast 168 193 11,500 -60 Level Fort Worth Center
07:17PM 33.0142 -97.8594 109° East 180 207 11,400 -600 Descending Fort Worth Center
07:18PM 32.9894 -97.7900 113° Southeast 194 223 10,300 -1,080 Descending Fort Worth Center
07:19PM 32.9708 -97.7328 111° Southeast 194 223 9,300 -1,200 Descending Fort Worth Center
07:20PM 32.9478 -97.6658 112° Southeast 194 223 7,900 -1,440 Descending Fort Worth Center
07:21PM 32.9333 -97.6189 110° East 182 209 6,500 -1,320 Descending Fort Worth Center
07:22PM 32.9106 -97.5742 121° Southeast 160 184 5,300 -1,200 Descending Fort Worth Center
07:23PM 32.8814 -97.5125 119° Southeast 182 209 4,200 -840 Descending Fort Worth Center
07:24PM 32.8522 -97.4581 123° Southeast 189 217 3,700 -360 Descending Fort Worth Center
07:25PM 32.8250 -97.4061 122° Southeast 189 217 3,500 -120 Descending Fort Worth Center
07:26PM 32.8000 -97.3567 121° Southeast 183 211 3,500  Level Fort Worth Center
07:27PM 32.7750 -97.3072 121° Southeast 183 211 3,500  Level Fort Worth Center
07:28PM 32.7497 -97.2603 123° Southeast 178 205 3,500 -240 Level Fort Worth Center
07:29PM 32.7225 -97.2083 122° Southeast 178 205 3,100 -420 Descending Fort Worth Center
07:30PM 32.6953 -97.1542 121° Southeast 185 213 2,700 -300 Descending Fort Worth Center
07:31PM 32.6833 -97.0833 101° East 182 209 2,500 -120 Descending Dallas / Fort Worth TRACON
07:32PM 32.6833 -97.0333 90° East 174 200 2,500  Level Dallas / Fort Worth TRACON
07:33PM 32.6833 -96.9833 90° East 177 204 2,500 -120 Level Dallas / Fort Worth TRACON
07:34PM 32.6833 -96.9167 90° East 179 206 2,300 -420 Descending Dallas / Fort Worth TRACON
07:35PM 32.6500 -96.8833 140° Southeast 138 159 1,700 -600 Descending Dallas / Fort Worth TRACON
07:37PM 32.6724 -96.8610 40° Northeast  Level FlightAware Approximate
07:44PM 32.6667 -96.8667 164° South  Level FlightAware Approximate
07:45PM 32.6809 -96.8682 164° South  Level Estimated